sensor_id;sensor_type;location;lat;lon;timestamp;temperature;humidity
71208;DHT22;58938;49.868;8.646;2022-09-27T00:00:19;13.70;74.90
71208;DHT22;58938;49.868;8.646;2022-09-27T00:02:46;13.80;74.90
71208;DHT22;58938;49.868;8.646;2022-09-27T00:05:12;13.80;75.00
71208;DHT22;58938;49.868;8.646;2022-09-27T00:07:38;13.80;75.00
71208;DHT22;58938;49.868;8.646;2022-09-27T00:10:04;13.80;75.00
71208;DHT22;58938;49.868;8.646;2022-09-27T00:12:29;13.80;75.00
71208;DHT22;58938;49.868;8.646;2022-09-27T00:14:55;13.80;75.00
71208;DHT22;58938;49.868;8.646;2022-09-27T00:17:21;13.80;75.10
71208;DHT22;58938;49.868;8.646;2022-09-27T00:19:47;13.70;75.10
71208;DHT22;58938;49.868;8.646;2022-09-27T00:22:12;13.80;75.10
71208;DHT22;58938;49.868;8.646;2022-09-27T00:24:38;13.80;75.10
71208;DHT22;58938;49.868;8.646;2022-09-27T00:27:03;13.80;75.10
71208;DHT22;58938;49.868;8.646;2022-09-27T00:29:29;13.80;75.00
71208;DHT22;58938;49.868;8.646;2022-09-27T00:31:54;13.80;75.10
71208;DHT22;58938;49.868;8.646;2022-09-27T00:34:24;13.80;75.00
71208;DHT22;58938;49.868;8.646;2022-09-27T00:36:51;13.80;75.00
71208;DHT22;58938;49.868;8.646;2022-09-27T00:39:17;13.80;75.10
71208;DHT22;58938;49.868;8.646;2022-09-27T00:41:44;13.80;75.10
71208;DHT22;58938;49.868;8.646;2022-09-27T00:47:07;13.80;75.20
71208;DHT22;58938;49.868;8.646;2022-09-27T00:50:04;13.70;75.20
71208;DHT22;58938;49.868;8.646;2022-09-27T00:52:46;13.70;75.30
71208;DHT22;58938;49.868;8.646;2022-09-27T00:55:19;13.70;75.30
71208;DHT22;58938;49.868;8.646;2022-09-27T00:57:45;13.70;75.30
71208;DHT22;58938;49.868;8.646;2022-09-27T01:00:12;13.70;75.30
71208;DHT22;58938;49.868;8.646;2022-09-27T01:02:43;13.70;75.30
71208;DHT22;58938;49.868;8.646;2022-09-27T01:05:11;13.70;75.50
71208;DHT22;58938;49.868;8.646;2022-09-27T01:07:37;13.70;75.50
71208;DHT22;58938;49.868;8.646;2022-09-27T01:10:04;13.70;75.50
71208;DHT22;58938;49.868;8.646;2022-09-27T01:12:41;13.70;75.50
71208;DHT22;58938;49.868;8.646;2022-09-27T01:18:05;13.70;75.50
71208;DHT22;58938;49.868;8.646;2022-09-27T01:20:46;13.70;75.70
71208;DHT22;58938;49.868;8.646;2022-09-27T01:26:20;13.60;75.80
71208;DHT22;58938;49.868;8.646;2022-09-27T01:32:26;13.70;75.80
71208;DHT22;58938;49.868;8.646;2022-09-27T01:35:00;13.70;75.80
71208;DHT22;58938;49.868;8.646;2022-09-27T01:40:23;13.70;75.90
71208;DHT22;58938;49.868;8.646;2022-09-27T01:43:12;13.70;75.90
71208;DHT22;58938;49.868;8.646;2022-09-27T01:45:58;13.70;75.90
71208;DHT22;58938;49.868;8.646;2022-09-27T01:48:31;13.70;75.90
71208;DHT22;58938;49.868;8.646;2022-09-27T01:51:03;13.70;75.90
71208;DHT22;58938;49.868;8.646;2022-09-27T01:53:45;13.70;75.90
71208;DHT22;58938;49.868;8.646;2022-09-27T01:56:25;13.70;76.00
71208;DHT22;58938;49.868;8.646;2022-09-27T01:59:36;13.70;75.90
71208;DHT22;58938;49.868;8.646;2022-09-27T02:01:54;13.70;76.00
71208;DHT22;58938;49.868;8.646;2022-09-27T02:04:27;13.70;76.10
71208;DHT22;58938;49.868;8.646;2022-09-27T02:07:05;13.70;76.00
71208;DHT22;58938;49.868;8.646;2022-09-27T02:10:00;13.70;76.10
71208;DHT22;58938;49.868;8.646;2022-09-27T02:12:30;13.70;76.10
71208;DHT22;58938;49.868;8.646;2022-09-27T02:15:07;13.70;76.10
71208;DHT22;58938;49.868;8.646;2022-09-27T02:20:26;13.70;76.00
71208;DHT22;58938;49.868;8.646;2022-09-27T02:23:00;13.70;76.10
71208;DHT22;58938;49.868;8.646;2022-09-27T02:30:51;13.70;76.10
71208;DHT22;58938;49.868;8.646;2022-09-27T02:33:20;13.60;76.10
71208;DHT22;58938;49.868;8.646;2022-09-27T02:35:47;13.60;76.20
71208;DHT22;58938;49.868;8.646;2022-09-27T02:38:12;13.70;76.20
71208;DHT22;58938;49.868;8.646;2022-09-27T02:40:43;13.70;76.20
71208;DHT22;58938;49.868;8.646;2022-09-27T02:43:09;13.70;76.30
71208;DHT22;58938;49.868;8.646;2022-09-27T02:51:33;13.70;76.30
71208;DHT22;58938;49.868;8.646;2022-09-27T03:02:32;13.60;76.30
71208;DHT22;58938;49.868;8.646;2022-09-27T03:05:23;13.60;76.30
71208;DHT22;58938;49.868;8.646;2022-09-27T03:07:49;13.60;76.30
71208;DHT22;58938;49.868;8.646;2022-09-27T03:10:20;13.60;76.30
71208;DHT22;58938;49.868;8.646;2022-09-27T03:12:46;13.60;76.20
71208;DHT22;58938;49.868;8.646;2022-09-27T03:15:12;13.60;76.30
71208;DHT22;58938;49.868;8.646;2022-09-27T03:17:38;13.60;76.20
71208;DHT22;58938;49.868;8.646;2022-09-27T03:20:04;13.60;76.00
71208;DHT22;58938;49.868;8.646;2022-09-27T03:22:30;13.60;76.00
71208;DHT22;58938;49.868;8.646;2022-09-27T03:24:56;13.60;76.20
71208;DHT22;58938;49.868;8.646;2022-09-27T03:27:21;13.60;76.00
71208;DHT22;58938;49.868;8.646;2022-09-27T03:29:47;13.60;75.80
71208;DHT22;58938;49.868;8.646;2022-09-27T03:32:12;13.60;75.80
71208;DHT22;58938;49.868;8.646;2022-09-27T03:34:38;13.60;75.70
71208;DHT22;58938;49.868;8.646;2022-09-27T03:37:04;13.50;75.40
71208;DHT22;58938;49.868;8.646;2022-09-27T03:39:29;13.50;74.90
71208;DHT22;58938;49.868;8.646;2022-09-27T03:41:55;13.50;75.00
71208;DHT22;58938;49.868;8.646;2022-09-27T03:44:21;13.50;74.90
71208;DHT22;58938;49.868;8.646;2022-09-27T03:46:47;13.50;74.90
71208;DHT22;58938;49.868;8.646;2022-09-27T03:49:12;13.50;74.70
71208;DHT22;58938;49.868;8.646;2022-09-27T03:51:38;13.50;74.60
71208;DHT22;58938;49.868;8.646;2022-09-27T03:54:03;13.50;74.70
71208;DHT22;58938;49.868;8.646;2022-09-27T03:56:29;13.50;74.60
71208;DHT22;58938;49.868;8.646;2022-09-27T03:58:55;13.50;74.60
71208;DHT22;58938;49.868;8.646;2022-09-27T04:01:20;13.50;74.40
71208;DHT22;58938;49.868;8.646;2022-09-27T04:03:46;13.50;74.40
71208;DHT22;58938;49.868;8.646;2022-09-27T04:06:12;13.50;74.20
71208;DHT22;58938;49.868;8.646;2022-09-27T04:08:38;13.50;74.00
71208;DHT22;58938;49.868;8.646;2022-09-27T04:11:04;13.40;73.70
71208;DHT22;58938;49.868;8.646;2022-09-27T04:13:29;13.40;73.70
71208;DHT22;58938;49.868;8.646;2022-09-27T04:15:55;13.40;73.60
71208;DHT22;58938;49.868;8.646;2022-09-27T04:18:20;13.30;73.40
71208;DHT22;58938;49.868;8.646;2022-09-27T04:20:46;13.30;73.30
71208;DHT22;58938;49.868;8.646;2022-09-27T04:23:11;13.30;73.00
71208;DHT22;58938;49.868;8.646;2022-09-27T04:25:37;13.20;73.20
71208;DHT22;58938;49.868;8.646;2022-09-27T04:28:04;13.20;73.30
71208;DHT22;58938;49.868;8.646;2022-09-27T04:30:30;13.20;73.20
71208;DHT22;58938;49.868;8.646;2022-09-27T04:32:56;13.20;73.10
71208;DHT22;58938;49.868;8.646;2022-09-27T04:35:22;13.20;73.20
71208;DHT22;58938;49.868;8.646;2022-09-27T04:38:06;13.20;73.20
71208;DHT22;58938;49.868;8.646;2022-09-27T04:40:35;13.20;73.30
71208;DHT22;58938;49.868;8.646;2022-09-27T04:43:01;13.10;73.40
71208;DHT22;58938;49.868;8.646;2022-09-27T04:45:28;13.20;73.50
71208;DHT22;58938;49.868;8.646;2022-09-27T04:47:53;13.20;73.50
71208;DHT22;58938;49.868;8.646;2022-09-27T04:50:19;13.20;73.60
71208;DHT22;58938;49.868;8.646;2022-09-27T04:52:52;13.20;73.60
71208;DHT22;58938;49.868;8.646;2022-09-27T04:55:19;13.20;73.60
71208;DHT22;58938;49.868;8.646;2022-09-27T04:57:45;13.20;73.70
71208;DHT22;58938;49.868;8.646;2022-09-27T05:00:12;13.20;73.80
71208;DHT22;58938;49.868;8.646;2022-09-27T05:02:38;13.30;73.80
71208;DHT22;58938;49.868;8.646;2022-09-27T05:05:03;13.20;73.70
71208;DHT22;58938;49.868;8.646;2022-09-27T05:07:33;13.20;73.80
71208;DHT22;58938;49.868;8.646;2022-09-27T05:09:58;13.20;73.50
71208;DHT22;58938;49.868;8.646;2022-09-27T05:12:24;13.20;73.60
71208;DHT22;58938;49.868;8.646;2022-09-27T05:14:52;13.20;73.30
71208;DHT22;58938;49.868;8.646;2022-09-27T05:17:18;13.20;73.40
71208;DHT22;58938;49.868;8.646;2022-09-27T05:19:44;13.10;73.00
71208;DHT22;58938;49.868;8.646;2022-09-27T05:22:10;13.10;73.30
71208;DHT22;58938;49.868;8.646;2022-09-27T05:24:36;13.10;73.40
71208;DHT22;58938;49.868;8.646;2022-09-27T05:27:03;13.10;73.40
71208;DHT22;58938;49.868;8.646;2022-09-27T05:29:31;13.10;73.30
71208;DHT22;58938;49.868;8.646;2022-09-27T05:31:56;13.10;73.40
71208;DHT22;58938;49.868;8.646;2022-09-27T05:34:22;13.10;73.30
71208;DHT22;58938;49.868;8.646;2022-09-27T05:36:48;13.20;73.20
71208;DHT22;58938;49.868;8.646;2022-09-27T05:39:14;13.20;73.10
71208;DHT22;58938;49.868;8.646;2022-09-27T05:41:44;13.20;73.00
71208;DHT22;58938;49.868;8.646;2022-09-27T05:44:10;13.10;73.00
71208;DHT22;58938;49.868;8.646;2022-09-27T05:46:35;13.20;73.20
71208;DHT22;58938;49.868;8.646;2022-09-27T05:49:03;13.20;73.20
71208;DHT22;58938;49.868;8.646;2022-09-27T05:51:29;13.20;72.50
71208;DHT22;58938;49.868;8.646;2022-09-27T05:53:54;13.20;72.80
71208;DHT22;58938;49.868;8.646;2022-09-27T05:56:20;13.10;72.70
71208;DHT22;58938;49.868;8.646;2022-09-27T05:58:46;13.10;72.90
71208;DHT22;58938;49.868;8.646;2022-09-27T06:01:11;13.10;72.80
71208;DHT22;58938;49.868;8.646;2022-09-27T06:03:37;13.20;72.70
71208;DHT22;58938;49.868;8.646;2022-09-27T06:06:05;13.10;72.60
71208;DHT22;58938;49.868;8.646;2022-09-27T06:08:38;13.10;71.90
71208;DHT22;58938;49.868;8.646;2022-09-27T06:11:06;13.10;72.10
71208;DHT22;58938;49.868;8.646;2022-09-27T06:13:33;13.10;71.80
71208;DHT22;58938;49.868;8.646;2022-09-27T06:16:01;13.00;71.80
71208;DHT22;58938;49.868;8.646;2022-09-27T06:18:27;13.00;72.10
71208;DHT22;58938;49.868;8.646;2022-09-27T06:20:52;13.10;71.80
71208;DHT22;58938;49.868;8.646;2022-09-27T06:23:20;13.00;71.60
71208;DHT22;58938;49.868;8.646;2022-09-27T06:25:47;13.00;71.80
71208;DHT22;58938;49.868;8.646;2022-09-27T06:28:14;13.10;71.70
71208;DHT22;58938;49.868;8.646;2022-09-27T06:30:45;13.10;71.60
71208;DHT22;58938;49.868;8.646;2022-09-27T06:33:13;13.10;71.40
71208;DHT22;58938;49.868;8.646;2022-09-27T06:35:40;13.00;70.70
71208;DHT22;58938;49.868;8.646;2022-09-27T06:38:09;13.00;71.30
71208;DHT22;58938;49.868;8.646;2022-09-27T06:40:35;13.00;71.40
71208;DHT22;58938;49.868;8.646;2022-09-27T06:43:02;13.00;71.00
71208;DHT22;58938;49.868;8.646;2022-09-27T06:45:28;13.10;71.00
71208;DHT22;58938;49.868;8.646;2022-09-27T06:47:56;13.00;70.80
71208;DHT22;58938;49.868;8.646;2022-09-27T06:50:21;13.00;70.90
71208;DHT22;58938;49.868;8.646;2022-09-27T06:52:48;13.00;70.80
71208;DHT22;58938;49.868;8.646;2022-09-27T06:55:14;13.00;70.60
71208;DHT22;58938;49.868;8.646;2022-09-27T06:57:40;13.00;70.30
71208;DHT22;58938;49.868;8.646;2022-09-27T07:00:24;13.10;70.60
71208;DHT22;58938;49.868;8.646;2022-09-27T07:02:55;13.10;70.20
71208;DHT22;58938;49.868;8.646;2022-09-27T07:05:23;13.10;70.50
71208;DHT22;58938;49.868;8.646;2022-09-27T07:07:50;13.10;70.40
71208;DHT22;58938;49.868;8.646;2022-09-27T07:10:18;13.10;70.40
71208;DHT22;58938;49.868;8.646;2022-09-27T07:12:43;13.10;70.00
71208;DHT22;58938;49.868;8.646;2022-09-27T07:15:13;13.10;70.30
71208;DHT22;58938;49.868;8.646;2022-09-27T07:17:39;13.10;70.10
71208;DHT22;58938;49.868;8.646;2022-09-27T07:20:05;13.10;70.10
71208;DHT22;58938;49.868;8.646;2022-09-27T07:22:31;13.10;70.00
71208;DHT22;58938;49.868;8.646;2022-09-27T07:24:57;13.10;69.70
71208;DHT22;58938;49.868;8.646;2022-09-27T07:27:23;13.10;69.10
71208;DHT22;58938;49.868;8.646;2022-09-27T07:29:50;13.10;69.50
71208;DHT22;58938;49.868;8.646;2022-09-27T07:32:15;13.10;69.50
71208;DHT22;58938;49.868;8.646;2022-09-27T07:34:41;13.10;69.30
71208;DHT22;58938;49.868;8.646;2022-09-27T07:37:06;13.10;69.40
71208;DHT22;58938;49.868;8.646;2022-09-27T07:39:32;13.20;69.10
71208;DHT22;58938;49.868;8.646;2022-09-27T07:41:57;13.20;69.30
71208;DHT22;58938;49.868;8.646;2022-09-27T07:44:23;13.20;69.10
71208;DHT22;58938;49.868;8.646;2022-09-27T07:46:49;13.20;68.70
71208;DHT22;58938;49.868;8.646;2022-09-27T07:49:15;13.10;68.80
71208;DHT22;58938;49.868;8.646;2022-09-27T07:51:40;13.20;68.90
71208;DHT22;58938;49.868;8.646;2022-09-27T07:54:06;13.20;68.60
71208;DHT22;58938;49.868;8.646;2022-09-27T07:56:31;13.20;68.40
71208;DHT22;58938;49.868;8.646;2022-09-27T07:58:57;13.20;68.20
71208;DHT22;58938;49.868;8.646;2022-09-27T08:01:23;13.20;68.50
71208;DHT22;58938;49.868;8.646;2022-09-27T08:03:49;13.20;68.20
71208;DHT22;58938;49.868;8.646;2022-09-27T08:06:14;13.20;68.00
71208;DHT22;58938;49.868;8.646;2022-09-27T08:08:40;13.10;67.70
71208;DHT22;58938;49.868;8.646;2022-09-27T08:11:14;13.20;67.90
71208;DHT22;58938;49.868;8.646;2022-09-27T08:13:44;13.20;67.60
71208;DHT22;58938;49.868;8.646;2022-09-27T08:16:10;13.20;67.60
71208;DHT22;58938;49.868;8.646;2022-09-27T08:18:35;13.20;67.30
71208;DHT22;58938;49.868;8.646;2022-09-27T08:21:02;13.20;67.60
71208;DHT22;58938;49.868;8.646;2022-09-27T08:23:29;13.20;67.20
71208;DHT22;58938;49.868;8.646;2022-09-27T08:25:55;13.30;67.50
71208;DHT22;58938;49.868;8.646;2022-09-27T08:28:24;13.30;67.50
71208;DHT22;58938;49.868;8.646;2022-09-27T08:30:50;13.30;67.30
71208;DHT22;58938;49.868;8.646;2022-09-27T08:33:17;13.40;67.30
71208;DHT22;58938;49.868;8.646;2022-09-27T08:35:43;13.40;66.80
71208;DHT22;58938;49.868;8.646;2022-09-27T08:38:09;13.40;66.70
71208;DHT22;58938;49.868;8.646;2022-09-27T08:43:43;13.50;67.00
71208;DHT22;58938;49.868;8.646;2022-09-27T08:51:54;13.50;65.40
71208;DHT22;58938;49.868;8.646;2022-09-27T08:54:25;13.50;65.30
71208;DHT22;58938;49.868;8.646;2022-09-27T08:57:02;13.50;65.30
71208;DHT22;58938;49.868;8.646;2022-09-27T08:59:35;13.50;64.90
71208;DHT22;58938;49.868;8.646;2022-09-27T09:02:03;13.50;64.90
71208;DHT22;58938;49.868;8.646;2022-09-27T09:04:37;13.50;65.00
71208;DHT22;58938;49.868;8.646;2022-09-27T09:07:25;13.50;65.10
71208;DHT22;58938;49.868;8.646;2022-09-27T09:10:42;13.60;64.90
71208;DHT22;58938;49.868;8.646;2022-09-27T09:16:29;13.70;65.00
71208;DHT22;58938;49.868;8.646;2022-09-27T09:19:42;13.70;64.80
71208;DHT22;58938;49.868;8.646;2022-09-27T09:22:19;13.70;64.60
71208;DHT22;58938;49.868;8.646;2022-09-27T09:24:56;13.70;65.00
71208;DHT22;58938;49.868;8.646;2022-09-27T09:27:43;13.80;65.20
71208;DHT22;58938;49.868;8.646;2022-09-27T09:30:22;13.90;65.50
71208;DHT22;58938;49.868;8.646;2022-09-27T09:36:03;14.00;65.40
71208;DHT22;58938;49.868;8.646;2022-09-27T09:41:10;14.10;65.20
71208;DHT22;58938;49.868;8.646;2022-09-27T09:44:01;14.10;65.20
71208;DHT22;58938;49.868;8.646;2022-09-27T09:46:35;14.10;65.20
71208;DHT22;58938;49.868;8.646;2022-09-27T09:49:13;14.10;64.10
71208;DHT22;58938;49.868;8.646;2022-09-27T09:51:43;14.10;63.30
71208;DHT22;58938;49.868;8.646;2022-09-27T09:54:21;14.00;63.20
71208;DHT22;58938;49.868;8.646;2022-09-27T09:56:54;14.00;62.40
71208;DHT22;58938;49.868;8.646;2022-09-27T09:59:27;14.00;63.00
71208;DHT22;58938;49.868;8.646;2022-09-27T10:01:58;14.00;63.60
71208;DHT22;58938;49.868;8.646;2022-09-27T10:04:27;13.90;64.90
71208;DHT22;58938;49.868;8.646;2022-09-27T10:06:56;13.80;65.20
71208;DHT22;58938;49.868;8.646;2022-09-27T10:09:26;13.80;65.50
71208;DHT22;58938;49.868;8.646;2022-09-27T10:11:53;13.80;65.80
71208;DHT22;58938;49.868;8.646;2022-09-27T10:14:20;13.80;66.00
71208;DHT22;58938;49.868;8.646;2022-09-27T10:16:49;13.80;66.10
71208;DHT22;58938;49.868;8.646;2022-09-27T10:19:26;13.80;66.40
71208;DHT22;58938;49.868;8.646;2022-09-27T10:22:01;13.80;66.50
71208;DHT22;58938;49.868;8.646;2022-09-27T10:24:27;13.80;66.40
71208;DHT22;58938;49.868;8.646;2022-09-27T10:26:58;13.80;66.50
71208;DHT22;58938;49.868;8.646;2022-09-27T10:31:55;13.80;66.80
71208;DHT22;58938;49.868;8.646;2022-09-27T10:34:33;13.80;66.90
71208;DHT22;58938;49.868;8.646;2022-09-27T10:39:38;13.80;66.90
71208;DHT22;58938;49.868;8.646;2022-09-27T10:44:56;13.90;67.20
71208;DHT22;58938;49.868;8.646;2022-09-27T10:47:24;14.00;67.10
71208;DHT22;58938;49.868;8.646;2022-09-27T10:49:52;14.10;66.30
71208;DHT22;58938;49.868;8.646;2022-09-27T10:52:26;14.10;66.20
71208;DHT22;58938;49.868;8.646;2022-09-27T10:54:58;14.20;65.90
71208;DHT22;58938;49.868;8.646;2022-09-27T10:57:26;14.20;65.50
71208;DHT22;58938;49.868;8.646;2022-09-27T11:00:03;14.20;65.70
71208;DHT22;58938;49.868;8.646;2022-09-27T11:02:32;14.30;64.40
71208;DHT22;58938;49.868;8.646;2022-09-27T11:05:13;14.30;64.60
71208;DHT22;58938;49.868;8.646;2022-09-27T11:07:53;14.30;64.70
71208;DHT22;58938;49.868;8.646;2022-09-27T11:10:24;14.30;64.10
71208;DHT22;58938;49.868;8.646;2022-09-27T11:13:06;14.40;63.80
71208;DHT22;58938;49.868;8.646;2022-09-27T11:24:18;14.50;60.50
71208;DHT22;58938;49.868;8.646;2022-09-27T11:27:14;14.60;61.60
71208;DHT22;58938;49.868;8.646;2022-09-27T11:30:13;14.60;60.50
71208;DHT22;58938;49.868;8.646;2022-09-27T11:35:38;14.60;59.90
71208;DHT22;58938;49.868;8.646;2022-09-27T11:43:42;14.50;58.70
71208;DHT22;58938;49.868;8.646;2022-09-27T11:46:31;14.60;58.70
71208;DHT22;58938;49.868;8.646;2022-09-27T11:49:04;14.60;58.90
71208;DHT22;58938;49.868;8.646;2022-09-27T11:51:45;14.70;59.00
71208;DHT22;58938;49.868;8.646;2022-09-27T11:54:27;14.70;59.30
71208;DHT22;58938;49.868;8.646;2022-09-27T12:00:12;14.80;59.30
71208;DHT22;58938;49.868;8.646;2022-09-27T12:03:18;14.90;59.40
71208;DHT22;58938;49.868;8.646;2022-09-27T12:06:15;14.90;59.10
71208;DHT22;58938;49.868;8.646;2022-09-27T12:09:07;14.90;58.30
71208;DHT22;58938;49.868;8.646;2022-09-27T12:11:45;14.90;58.00
71208;DHT22;58938;49.868;8.646;2022-09-27T12:16:45;14.90;58.60
71208;DHT22;58938;49.868;8.646;2022-09-27T12:19:35;14.90;59.00
71208;DHT22;58938;49.868;8.646;2022-09-27T12:22:05;14.90;59.30
71208;DHT22;58938;49.868;8.646;2022-09-27T12:24:32;14.90;59.30
71208;DHT22;58938;49.868;8.646;2022-09-27T12:27:02;15.00;59.30
71208;DHT22;58938;49.868;8.646;2022-09-27T12:29:35;14.90;59.40
71208;DHT22;58938;49.868;8.646;2022-09-27T12:32:23;15.00;59.40
71208;DHT22;58938;49.868;8.646;2022-09-27T12:37:47;15.00;59.40
71208;DHT22;58938;49.868;8.646;2022-09-27T12:40:19;15.00;59.40
71208;DHT22;58938;49.868;8.646;2022-09-27T12:50:57;15.00;58.60
71208;DHT22;58938;49.868;8.646;2022-09-27T13:04:42;15.00;59.60
71208;DHT22;58938;49.868;8.646;2022-09-27T13:12:31;14.90;58.00
71208;DHT22;58938;49.868;8.646;2022-09-27T13:15:12;14.90;58.10
71208;DHT22;58938;49.868;8.646;2022-09-27T13:22:56;14.80;59.30
71208;DHT22;58938;49.868;8.646;2022-09-27T13:25:59;14.70;59.40
71208;DHT22;58938;49.868;8.646;2022-09-27T13:31:11;14.40;59.80
71208;DHT22;58938;49.868;8.646;2022-09-27T13:33:50;14.30;60.40
71208;DHT22;58938;49.868;8.646;2022-09-27T13:41:30;14.20;61.60
71208;DHT22;58938;49.868;8.646;2022-09-27T13:46:59;14.10;61.80
71208;DHT22;58938;49.868;8.646;2022-09-27T13:49:35;14.20;61.90
71208;DHT22;58938;49.868;8.646;2022-09-27T13:54:53;14.10;61.90
71208;DHT22;58938;49.868;8.646;2022-09-27T13:57:50;14.20;62.00
71208;DHT22;58938;49.868;8.646;2022-09-27T14:03:06;14.20;62.30
71208;DHT22;58938;49.868;8.646;2022-09-27T14:05:57;14.20;62.10
71208;DHT22;58938;49.868;8.646;2022-09-27T14:10:52;14.20;62.50
71208;DHT22;58938;49.868;8.646;2022-09-27T14:13:19;14.30;62.50
71208;DHT22;58938;49.868;8.646;2022-09-27T14:15:47;14.30;62.70
71208;DHT22;58938;49.868;8.646;2022-09-27T14:18:13;14.30;62.80
71208;DHT22;58938;49.868;8.646;2022-09-27T14:20:44;14.30;62.90
71208;DHT22;58938;49.868;8.646;2022-09-27T14:23:36;14.40;63.00
71208;DHT22;58938;49.868;8.646;2022-09-27T14:26:02;14.40;63.20
71208;DHT22;58938;49.868;8.646;2022-09-27T14:28:30;14.40;63.40
71208;DHT22;58938;49.868;8.646;2022-09-27T14:31:15;14.50;63.60
71208;DHT22;58938;49.868;8.646;2022-09-27T14:33:43;14.50;63.70
71208;DHT22;58938;49.868;8.646;2022-09-27T14:36:28;14.50;64.00
71208;DHT22;58938;49.868;8.646;2022-09-27T14:39:33;14.60;63.90
71208;DHT22;58938;49.868;8.646;2022-09-27T14:42:04;14.60;63.70
71208;DHT22;58938;49.868;8.646;2022-09-27T14:44:31;14.50;63.70
71208;DHT22;58938;49.868;8.646;2022-09-27T14:49:34;14.60;63.60
71208;DHT22;58938;49.868;8.646;2022-09-27T14:51:59;14.60;63.20
71208;DHT22;58938;49.868;8.646;2022-09-27T14:54:27;14.60;63.40
71208;DHT22;58938;49.868;8.646;2022-09-27T14:56:55;14.60;63.30
71208;DHT22;58938;49.868;8.646;2022-09-27T14:59:29;14.60;63.50
71208;DHT22;58938;49.868;8.646;2022-09-27T15:02:01;14.60;63.40
71208;DHT22;58938;49.868;8.646;2022-09-27T15:04:30;14.60;63.30
71208;DHT22;58938;49.868;8.646;2022-09-27T15:07:00;14.70;63.40
71208;DHT22;58938;49.868;8.646;2022-09-27T15:09:27;14.70;63.30
71208;DHT22;58938;49.868;8.646;2022-09-27T15:11:56;14.70;62.80
71208;DHT22;58938;49.868;8.646;2022-09-27T15:14:24;14.60;62.60
71208;DHT22;58938;49.868;8.646;2022-09-27T15:16:51;14.60;62.70
71208;DHT22;58938;49.868;8.646;2022-09-27T15:19:24;14.60;63.10
71208;DHT22;58938;49.868;8.646;2022-09-27T15:21:55;14.60;63.30
71208;DHT22;58938;49.868;8.646;2022-09-27T15:24:39;14.60;63.50
71208;DHT22;58938;49.868;8.646;2022-09-27T15:27:16;14.60;63.70
71208;DHT22;58938;49.868;8.646;2022-09-27T15:29:48;14.60;64.50
71208;DHT22;58938;49.868;8.646;2022-09-27T15:32:16;14.50;65.30
71208;DHT22;58938;49.868;8.646;2022-09-27T15:34:44;14.30;65.80
71208;DHT22;58938;49.868;8.646;2022-09-27T15:37:34;14.20;66.10
71208;DHT22;58938;49.868;8.646;2022-09-27T15:42:58;14.00;66.50
71208;DHT22;58938;49.868;8.646;2022-09-27T15:45:29;14.00;66.90
71208;DHT22;58938;49.868;8.646;2022-09-27T15:48:07;13.90;66.80
71208;DHT22;58938;49.868;8.646;2022-09-27T15:50:37;13.80;67.00
71208;DHT22;58938;49.868;8.646;2022-09-27T15:53:04;13.80;67.20
71208;DHT22;58938;49.868;8.646;2022-09-27T15:55:33;13.70;67.80
71208;DHT22;58938;49.868;8.646;2022-09-27T15:58:04;13.70;67.80
71208;DHT22;58938;49.868;8.646;2022-09-27T16:00:32;13.70;67.90
71208;DHT22;58938;49.868;8.646;2022-09-27T16:03:00;13.70;68.10
71208;DHT22;58938;49.868;8.646;2022-09-27T16:05:26;13.70;68.30
71208;DHT22;58938;49.868;8.646;2022-09-27T16:07:54;13.70;68.60
71208;DHT22;58938;49.868;8.646;2022-09-27T16:10:22;13.70;68.50
71208;DHT22;58938;49.868;8.646;2022-09-27T16:12:48;13.70;68.50
71208;DHT22;58938;49.868;8.646;2022-09-27T16:15:15;13.70;68.60
71208;DHT22;58938;49.868;8.646;2022-09-27T16:17:41;13.70;68.70
71208;DHT22;58938;49.868;8.646;2022-09-27T16:20:22;13.70;68.70
71208;DHT22;58938;49.868;8.646;2022-09-27T16:22:50;13.70;68.70
71208;DHT22;58938;49.868;8.646;2022-09-27T16:25:16;13.70;68.80
71208;DHT22;58938;49.868;8.646;2022-09-27T16:27:42;13.70;69.00
71208;DHT22;58938;49.868;8.646;2022-09-27T16:30:08;13.80;69.10
71208;DHT22;58938;49.868;8.646;2022-09-27T16:32:42;13.80;69.20
71208;DHT22;58938;49.868;8.646;2022-09-27T16:35:09;13.80;69.20
71208;DHT22;58938;49.868;8.646;2022-09-27T16:37:35;13.80;69.30
71208;DHT22;58938;49.868;8.646;2022-09-27T16:40:02;13.80;69.50
71208;DHT22;58938;49.868;8.646;2022-09-27T16:42:28;13.80;69.50
71208;DHT22;58938;49.868;8.646;2022-09-27T16:44:54;13.80;69.70
71208;DHT22;58938;49.868;8.646;2022-09-27T16:47:20;13.80;69.80
71208;DHT22;58938;49.868;8.646;2022-09-27T16:49:46;13.80;69.70
71208;DHT22;58938;49.868;8.646;2022-09-27T16:52:30;13.80;69.80
71208;DHT22;58938;49.868;8.646;2022-09-27T16:54:59;13.70;69.90
71208;DHT22;58938;49.868;8.646;2022-09-27T16:57:26;13.80;69.90
71208;DHT22;58938;49.868;8.646;2022-09-27T16:59:53;13.80;70.00
71208;DHT22;58938;49.868;8.646;2022-09-27T17:02:22;13.80;70.00
71208;DHT22;58938;49.868;8.646;2022-09-27T17:04:49;13.80;70.00
71208;DHT22;58938;49.868;8.646;2022-09-27T17:07:15;13.80;70.10
71208;DHT22;58938;49.868;8.646;2022-09-27T17:09:40;13.80;70.20
71208;DHT22;58938;49.868;8.646;2022-09-27T17:12:06;13.80;70.30
71208;DHT22;58938;49.868;8.646;2022-09-27T17:14:31;13.80;70.30
71208;DHT22;58938;49.868;8.646;2022-09-27T17:16:57;13.80;70.30
71208;DHT22;58938;49.868;8.646;2022-09-27T17:19:23;13.80;69.80
71208;DHT22;58938;49.868;8.646;2022-09-27T17:21:49;13.70;69.90
71208;DHT22;58938;49.868;8.646;2022-09-27T17:24:15;13.70;69.40
71208;DHT22;58938;49.868;8.646;2022-09-27T17:26:41;13.70;69.60
71208;DHT22;58938;49.868;8.646;2022-09-27T17:29:09;13.70;69.70
71208;DHT22;58938;49.868;8.646;2022-09-27T17:31:37;13.70;69.20
71208;DHT22;58938;49.868;8.646;2022-09-27T17:34:03;13.70;69.30
71208;DHT22;58938;49.868;8.646;2022-09-27T17:36:31;13.70;69.10
71208;DHT22;58938;49.868;8.646;2022-09-27T17:39:03;13.60;69.20
71208;DHT22;58938;49.868;8.646;2022-09-27T17:41:29;13.70;69.40
71208;DHT22;58938;49.868;8.646;2022-09-27T17:43:56;13.70;69.30
71208;DHT22;58938;49.868;8.646;2022-09-27T17:46:25;13.70;69.20
71208;DHT22;58938;49.868;8.646;2022-09-27T17:48:51;13.70;68.70
71208;DHT22;58938;49.868;8.646;2022-09-27T17:51:38;13.70;68.80
71208;DHT22;58938;49.868;8.646;2022-09-27T17:54:05;13.70;68.50
71208;DHT22;58938;49.868;8.646;2022-09-27T17:56:35;13.70;68.10
71208;DHT22;58938;49.868;8.646;2022-09-27T17:59:02;13.70;68.00
71208;DHT22;58938;49.868;8.646;2022-09-27T18:01:28;13.60;66.70
71208;DHT22;58938;49.868;8.646;2022-09-27T18:03:58;13.60;67.60
71208;DHT22;58938;49.868;8.646;2022-09-27T18:06:28;13.60;66.70
71208;DHT22;58938;49.868;8.646;2022-09-27T18:08:55;13.60;67.00
71208;DHT22;58938;49.868;8.646;2022-09-27T18:11:23;13.60;67.10
71208;DHT22;58938;49.868;8.646;2022-09-27T18:13:54;13.60;67.00